Time;durP1;ratioP1;P1;durP2;ratioP2;P2;SDS_P1;SDS_P2;PMS_P1;PMS_P2;Temp;Humidity;BMP_temperature;BMP_pressure;BME280_temperature;BME280_humidity;BME280_pressure;Samples;Min_cycle;Max_cycle;Signal;HPM_P1;HPM_P2
2022/06/21 00:00:01;;;;;;;;;;;;;;;-140.72;100.00;52512.59;6247675;23;19918;-70
2022/06/21 00:02:26;;;;;;;;;;;;;;;-140.72;100.00;52530.88;6247586;23;20002;-68
2022/06/21 00:04:53;;;;;;;;;;;;;;;-140.72;100.00;52500.44;6273624;23;19911;-69
2022/06/21 00:07:21;;;;;;;;;;;;;;;-140.72;100.00;52494.34;6273025;23;19918;-69
2022/06/21 00:09:47;;;;;;;;;;;;;;;-140.72;100.00;52474.06;6274354;23;19908;-68
2022/06/21 00:12:12;;;;;;;;;;;;;;;-140.72;100.00;52490.28;6273521;23;19907;-69
2022/06/21 00:14:39;;;;;;;;;;;;;;;-140.72;100.00;52518.69;6272280;23;19942;-68
2022/06/21 00:17:04;;;;;;;;;;;;;;;-140.72;100.00;52478.13;6271557;23;19958;-67
2022/06/21 00:19:30;;;;;;;;;;;;;;;-140.72;100.00;52524.78;6272251;23;19916;-68
2022/06/21 00:21:55;;;;;;;;;;;;;;;-140.72;100.00;52470.00;6270981;23;20348;-70
2022/06/21 00:24:20;;;;;;;;;;;;;;;-140.72;100.00;52498.41;6272562;23;19932;-68
2022/06/21 00:26:46;;;;;;;;;;;;;;;-140.72;100.00;52488.25;6246872;23;19931;-68
2022/06/21 00:29:11;;;;;;;;;;;;;;;-140.72;100.00;52514.63;6273443;23;19956;-68
2022/06/21 00:31:39;;;;;;;;;;;;;;;-140.72;100.00;52522.75;6246552;23;19922;-68
2022/06/21 00:34:07;;;;;;;;;;;;;;;-140.72;100.00;52480.16;6245550;23;19896;-68
2022/06/21 00:36:34;;;;;;;;;;;;;;;-140.72;100.00;52516.66;6272093;23;20277;-69
2022/06/21 00:39:00;;;;;;;;;;;;;;;-140.72;100.00;52463.91;6247012;23;19934;-68
2022/06/21 00:41:41;;;;;;;;;;;;;;;-140.72;100.00;52502.47;6247072;23;19919;-68
2022/06/21 00:44:08;;;;;;;;;;;;;;;-140.72;100.00;52506.53;6273175;23;19919;-69
2022/06/21 00:46:37;;;;;;;;;;;;;;;-140.72;100.00;52508.56;6273271;23;19911;-68
2022/06/21 00:49:05;;;;;;;;;;;;;;;-140.72;100.00;52502.47;6272756;23;19904;-70
2022/06/21 00:51:34;;;;;;;;;;;;;;;-140.72;100.00;52520.72;6273830;23;19959;-68
2022/06/21 00:54:03;;;;;;;;;;;;;;;-140.72;100.00;52541.03;6272775;23;19912;-70
2022/06/21 00:56:32;;;;;;;;;;;;;;;-140.72;100.00;52541.03;6272791;23;19912;-69
2022/06/21 00:58:57;;;;;;;;;;;;;;;-140.72;100.00;52524.78;6271355;23;19998;-69
2022/06/21 01:01:27;;;;;;;;;;;;;;;-140.72;100.00;52526.81;6272837;23;19912;-68
2022/06/21 01:03:52;;;;;;;;;;;;;;;-140.72;100.00;52506.53;6272660;23;19899;-69
2022/06/21 01:06:27;;;;;;;;;;;;;;;-140.72;100.00;52536.97;6273089;23;19914;-68
2022/06/21 01:08:56;;;;;;;;;;;;;;;-140.72;100.00;52496.38;6272554;23;19900;-69
2022/06/21 01:11:25;;;;;;;;;;;;;;;-140.72;100.00;52506.53;6272076;22;19968;-69
2022/06/21 01:13:52;;;;;;;;;;;;;;;-140.72;100.00;52516.66;6272083;23;19919;-69
2022/06/21 01:16:19;;;;;;;;;;;;;;;-140.72;100.00;52545.06;6273312;23;19911;-69
2022/06/21 01:18:45;;;;;;;;;;;;;;;-140.72;100.00;52514.63;6273516;23;19916;-69
2022/06/21 01:21:13;;;;;;;;;;;;;;;-140.72;100.00;52539.00;6273086;23;19915;-68
2022/06/21 01:23:51;;;;;;;;;;;;;;;-140.72;100.00;52524.78;6273453;23;19903;-69
2022/06/21 01:26:16;;;;;;;;;;;;;;;-140.72;100.00;52528.84;6273602;23;19970;-69
2022/06/21 01:28:42;;;;;;;;;;;;;;;-140.72;100.00;52510.59;6273380;23;19961;-70
2022/06/21 01:31:08;;;;;;;;;;;;;;;-140.72;100.00;52516.66;6273877;23;19922;-68
2022/06/21 01:33:34;;;;;;;;;;;;;;;-140.72;100.00;52498.41;6273787;22;19903;-68
2022/06/21 01:36:03;;;;;;;;;;;;;;;-140.72;100.00;52504.50;6246847;23;20292;-69
2022/06/21 01:38:32;;;;;;;;;;;;;;;-140.72;100.00;52512.59;6273063;23;19926;-69
2022/06/21 01:41:03;;;;;;;;;;;;;;;-140.72;100.00;52536.97;6273292;23;19912;-68
2022/06/21 01:43:29;;;;;;;;;;;;;;;-140.72;100.00;52545.06;6272946;23;19919;-69
2022/06/21 01:45:57;;;;;;;;;;;;;;;-140.72;100.00;52528.84;6246504;23;19919;-68
2022/06/21 01:48:24;;;;;;;;;;;;;;;-140.72;100.00;52492.31;6273057;23;19916;-69
2022/06/21 01:50:52;;;;;;;;;;;;;;;-140.72;100.00;52524.78;6273040;22;19930;-68
2022/06/21 01:53:19;;;;;;;;;;;;;;;-140.72;100.00;52553.19;6245890;23;19912;-67
2022/06/21 01:55:47;;;;;;;;;;;;;;;-140.72;100.00;52506.53;6273772;22;19947;-69
2022/06/21 01:58:16;;;;;;;;;;;;;;;-140.72;100.00;52545.06;6246195;23;19951;-68
2022/06/21 02:00:44;;;;;;;;;;;;;;;-140.72;100.00;52536.97;6272982;23;19934;-69
2022/06/21 02:03:13;;;;;;;;;;;;;;;-140.72;100.00;52532.91;6271176;23;19911;-68
2022/06/21 02:05:41;;;;;;;;;;;;;;;-140.72;100.00;52524.78;6245468;23;19918;-67
2022/06/21 02:08:12;;;;;;;;;;;;;;;-140.72;100.00;52510.59;6271035;23;19911;-68
2022/06/21 02:10:46;;;;;;;;;;;;;;;-140.72;100.00;52571.47;6270680;23;19907;-68
2022/06/21 02:13:14;;;;;;;;;;;;;;;-140.72;100.00;52557.25;6270719;23;19918;-68
2022/06/21 02:15:42;;;;;;;;;;;;;;;-140.72;100.00;52553.19;6272084;23;19934;-68
2022/06/21 02:18:09;;;;;;;;;;;;;;;-140.72;100.00;52516.66;6271793;23;19912;-68
2022/06/21 02:20:37;;;;;;;;;;;;;;;-140.72;100.00;52545.06;6270501;23;19912;-70
2022/06/21 02:23:04;;;;;;;;;;;;;;;-140.72;100.00;52545.06;6270801;23;19919;-69
2022/06/21 02:25:29;;;;;;;;;;;;;;;-140.72;100.00;52536.97;6245519;22;19930;-68
2022/06/21 02:28:00;;;;;;;;;;;;;;;-140.72;100.00;52563.34;6272518;23;19896;-69
2022/06/21 02:30:26;;;;;;;;;;;;;;;-140.72;100.00;52532.91;6271525;23;19912;-68
2022/06/21 03:05:18;;;;;;;;;;;;;;;-140.72;100.00;52510.59;6250327;22;20004;-72
2022/06/21 03:07:47;;;;;;;;;;;;;;;-140.72;100.00;52559.28;6276557;22;19931;-72
2022/06/21 03:10:19;;;;;;;;;;;;;;;-140.72;100.00;52541.03;6276229;22;19915;-73
2022/06/21 03:12:47;;;;;;;;;;;;;;;-140.72;100.00;52541.03;6276502;22;20081;-72
2022/06/21 03:15:12;;;;;;;;;;;;;;;-140.72;100.00;52514.63;6276169;22;19915;-72
2022/06/21 03:17:48;;;;;;;;;;;;;;;-140.72;100.00;52547.09;6277126;22;19969;-72
2022/06/21 03:20:19;;;;;;;;;;;;;;;-140.72;100.00;52553.19;6277357;22;20155;-72
2022/06/21 03:22:45;;;;;;;;;;;;;;;-140.72;100.00;52571.47;6278753;22;20213;-72
2022/06/21 03:25:21;;;;;;;;;;;;;;;-140.72;100.00;52541.03;6279808;22;19922;-73
2022/06/21 03:27:46;;;;;;;;;;;;;;;-140.72;100.00;52553.19;6272014;22;19938;-73
2022/06/21 03:30:12;;;;;;;;;;;;;;;-140.72;100.00;52545.06;6279069;22;19922;-73
2022/06/21 03:32:37;;;;;;;;;;;;;;;-140.72;100.00;52565.38;6279292;22;19911;-73
2022/06/21 03:35:04;;;;;;;;;;;;;;;-140.72;100.00;52536.97;6279692;22;19915;-72
2022/06/21 03:37:30;;;;;;;;;;;;;;;-140.72;100.00;52555.22;6252308;22;19911;-72
2022/06/21 03:42:42;;;;;;;;;;;;;;;-140.72;100.00;52547.09;6279205;22;19961;-72
2022/06/21 03:45:07;;;;;;;;;;;;;;;-140.72;100.00;52536.97;6282727;22;20213;-72
2022/06/21 03:47:45;;;;;;;;;;;;;;;-140.72;100.00;52555.22;6281594;22;19912;-73
2022/06/21 03:50:20;;;;;;;;;;;;;;;-140.72;100.00;52547.09;6282175;22;19918;-72
2022/06/21 03:53:06;;;;;;;;;;;;;;;-140.72;100.00;52520.72;6254967;22;20010;-72
2022/06/21 03:55:39;;;;;;;;;;;;;;;-140.72;100.00;52532.91;6217215;22;19994;-72
2022/06/21 03:58:05;;;;;;;;;;;;;;;-140.72;100.00;52510.59;6279295;22;19916;-72
2022/06/21 04:00:32;;;;;;;;;;;;;;;-140.72;100.00;52551.16;6279220;22;20248;-73
2022/06/21 04:02:58;;;;;;;;;;;;;;;-140.72;100.00;52520.72;6278837;22;19964;-72
2022/06/21 04:05:33;;;;;;;;;;;;;;;-140.72;100.00;52536.97;6282839;22;19915;-72
2022/06/21 04:08:01;;;;;;;;;;;;;;;-140.72;100.00;52545.06;6285596;22;19982;-71
2022/06/21 04:10:33;;;;;;;;;;;;;;;-140.72;100.00;52565.38;6257313;22;20351;-72
2022/06/21 04:13:18;;;;;;;;;;;;;;;-140.72;100.00;52573.50;6258389;22;19994;-72
2022/06/21 04:15:50;;;;;;;;;;;;;;;-140.72;100.00;52551.16;6279509;22;20380;-71
2022/06/21 04:18:21;;;;;;;;;;;;;;;-140.72;100.00;52541.03;6277752;22;20346;-72
2022/06/21 04:21:05;;;;;;;;;;;;;;;-140.72;100.00;52520.72;6251009;22;19911;-71
2022/06/21 04:23:33;;;;;;;;;;;;;;;-140.72;100.00;52524.78;6250424;22;19918;-72
2022/06/21 04:26:13;;;;;;;;;;;;;;;-140.72;100.00;52506.53;6251178;22;19915;-73
2022/06/21 04:28:42;;;;;;;;;;;;;;;-140.72;100.00;52547.09;6250647;22;20037;-74
2022/06/21 04:31:11;;;;;;;;;;;;;;;-140.72;100.00;52530.88;6250062;22;19959;-77
2022/06/21 04:33:40;;;;;;;;;;;;;;;-140.72;100.00;52500.44;6249926;22;19990;-75
2022/06/21 04:36:13;;;;;;;;;;;;;;;-140.72;100.00;52528.84;6277791;22;20300;-75
2022/06/21 04:38:41;;;;;;;;;;;;;;;-140.72;100.00;52553.19;6250346;22;19918;-75
2022/06/21 04:41:06;;;;;;;;;;;;;;;-140.72;100.00;52522.75;6276908;22;20045;-73
2022/06/21 04:43:40;;;;;;;;;;;;;;;-140.72;100.00;52524.78;6249976;22;19947;-74
2022/06/21 04:46:11;;;;;;;;;;;;;;;-140.72;100.00;52541.03;6250008;22;20003;-74
2022/06/21 04:48:40;;;;;;;;;;;;;;;-140.72;100.00;52486.22;6250242;22;20249;-74
2022/06/21 04:51:21;;;;;;;;;;;;;;;-140.72;100.00;52520.72;6249740;22;19965;-73
2022/06/21 04:53:54;;;;;;;;;;;;;;;-140.72;100.00;52498.41;6277251;22;19911;-74
2022/06/21 04:56:45;;;;;;;;;;;;;;;-140.72;100.00;52510.59;6251887;22;19912;-74
2022/06/21 04:59:14;;;;;;;;;;;;;;;-140.72;100.00;52506.53;6277815;22;19912;-76
2022/06/21 05:01:39;;;;;;;;;;;;;;;-140.72;100.00;52530.88;6249691;22;19911;-75
2022/06/21 05:04:07;;;;;;;;;;;;;;;-140.72;100.00;52516.66;6278718;22;19918;-81
2022/06/21 05:06:33;;;;;;;;;;;;;;;-140.72;100.00;52492.31;6252138;22;20317;-75
2022/06/21 05:08:59;;;;;;;;;;;;;;;-140.72;100.00;52508.56;6249980;22;19942;-74
2022/06/21 05:11:25;;;;;;;;;;;;;;;-140.72;100.00;52490.28;6278011;22;20331;-76
2022/06/21 05:13:52;;;;;;;;;;;;;;;-140.72;100.00;52524.78;6250382;22;19957;-76
2022/06/21 05:16:17;;;;;;;;;;;;;;;-140.72;100.00;52467.97;6250773;22;20062;-75
2022/06/21 05:18:45;;;;;;;;;;;;;;;-140.72;100.00;52439.56;6280714;22;20293;-74
2022/06/21 05:21:13;;;;;;;;;;;;;;;-140.72;100.00;52476.09;6281163;22;19911;-74
2022/06/21 05:23:39;;;;;;;;;;;;;;;-140.72;100.00;52461.88;6280255;22;20010;-73
2022/06/21 05:26:09;;;;;;;;;;;;;;;-140.72;100.00;52526.81;6278724;22;20014;-73
2022/06/21 05:28:42;;;;;;;;;;;;;;;-140.72;100.00;52518.69;6279550;22;19911;-71
2022/06/21 05:31:17;;;;;;;;;;;;;;;-140.72;100.00;52480.16;6252869;22;19911;-75
2022/06/21 05:33:54;;;;;;;;;;;;;;;-140.72;100.00;52476.09;6254726;22;19957;-73
2022/06/21 05:36:26;;;;;;;;;;;;;;;-140.72;100.00;52500.44;6252216;22;20340;-75
2022/06/21 05:38:56;;;;;;;;;;;;;;;-140.72;100.00;52508.56;6280031;22;19915;-76
2022/06/21 05:41:32;;;;;;;;;;;;;;;-140.72;100.00;52463.91;6279866;22;19961;-76
2022/06/21 05:44:03;;;;;;;;;;;;;;;-140.72;100.00;52465.94;6278110;22;19912;-76
2022/06/21 05:46:31;;;;;;;;;;;;;;;-140.72;100.00;52500.44;6279213;22;20329;-75
2022/06/21 05:48:58;;;;;;;;;;;;;;;-140.72;100.00;52484.19;6278573;22;19918;-75
2022/06/21 05:51:25;;;;;;;;;;;;;;;-140.72;100.00;52451.72;6251225;22;19918;-76
2022/06/21 05:53:52;;;;;;;;;;;;;;;-140.72;100.00;52484.19;6250834;22;20036;-75
2022/06/21 05:56:19;;;;;;;;;;;;;;;-140.72;100.00;52472.03;6250315;22;19911;-76
2022/06/21 05:59:05;;;;;;;;;;;;;;;-140.72;100.00;52451.72;6250216;22;19911;-75
2022/06/21 06:01:49;;;;;;;;;;;;;;;-140.72;100.00;52435.50;6249850;22;19959;-75
2022/06/21 06:04:18;;;;;;;;;;;;;;;-140.72;100.00;52496.38;6250281;22;19961;-75
2022/06/21 06:06:44;;;;;;;;;;;;;;;-140.72;100.00;52439.56;6251074;22;19918;-74
2022/06/21 06:09:19;;;;;;;;;;;;;;;-140.72;100.00;52476.09;6251641;22;19911;-76
2022/06/21 06:12:00;;;;;;;;;;;;;;;-140.72;100.00;52435.50;6251054;22;19922;-74
2022/06/21 06:14:47;;;;;;;;;;;;;;;-140.72;100.00;52453.75;6286432;22;19960;-75
2022/06/21 06:17:23;;;;;;;;;;;;;;;-140.72;100.00;52427.38;6256179;22;19930;-73
2022/06/21 06:19:55;;;;;;;;;;;;;;;-140.72;100.00;52470.00;6253466;22;19934;-73
2022/06/21 06:22:27;;;;;;;;;;;;;;;-140.72;100.00;52415.22;6284231;22;19995;-72
2022/06/21 06:25:04;;;;;;;;;;;;;;;-140.72;100.00;52467.97;6282976;22;19911;-72
2022/06/21 06:27:45;;;;;;;;;;;;;;;-140.72;100.00;52447.69;6283347;22;19998;-72
2022/06/21 06:30:12;;;;;;;;;;;;;;;-140.72;100.00;52445.66;6284505;22;19985;-72
2022/06/21 06:32:41;;;;;;;;;;;;;;;-140.72;100.00;52459.84;6261305;22;19922;-72
2022/06/21 06:35:13;;;;;;;;;;;;;;;-140.72;100.00;52439.56;6287725;22;19911;-73
2022/06/21 06:37:42;;;;;;;;;;;;;;;-140.72;100.00;52457.81;6290395;22;19991;-71
2022/06/21 06:40:15;;;;;;;;;;;;;;;-140.72;100.00;52455.78;6290014;22;19912;-72
2022/06/21 06:42:41;;;;;;;;;;;;;;;-140.72;100.00;52421.28;6290371;22;20355;-72
2022/06/21 06:45:12;;;;;;;;;;;;;;;-140.72;100.00;52415.22;6285402;22;19911;-72
2022/06/21 06:47:39;;;;;;;;;;;;;;;-140.72;100.00;52429.41;6285616;22;20345;-73
2022/06/21 06:50:15;;;;;;;;;;;;;;;-140.72;100.00;52405.06;6286026;22;20010;-73
2022/06/21 06:52:49;;;;;;;;;;;;;;;-140.72;100.00;52388.84;6288092;22;19919;-73
2022/06/21 06:55:37;;;;;;;;;;;;;;;-140.72;100.00;52411.16;6258386;22;19968;-72
2022/06/21 06:58:05;;;;;;;;;;;;;;;-140.72;100.00;52415.22;6289050;22;19918;-73
2022/06/21 07:00:34;;;;;;;;;;;;;;;-140.72;100.00;52423.31;6261124;22;19915;-72
2022/06/21 07:03:10;;;;;;;;;;;;;;;-140.72;100.00;52398.97;6289079;22;19912;-73
2022/06/21 07:06:07;;;;;;;;;;;;;;;-140.72;100.00;52390.84;6287236;22;19919;-72
2022/06/21 07:08:35;;;;;;;;;;;;;;;-140.72;100.00;52382.75;6218585;22;19911;-73
2022/06/21 07:11:03;;;;;;;;;;;;;;;-140.72;100.00;52415.22;6287488;22;19953;-73
2022/06/21 07:13:29;;;;;;;;;;;;;;;-140.72;100.00;52392.88;6287152;22;19911;-72
2022/06/21 07:15:57;;;;;;;;;;;;;;;-140.72;100.00;52374.63;6286350;22;19969;-72
2022/06/21 07:18:22;;;;;;;;;;;;;;;-140.72;100.00;52392.88;6285970;22;19962;-71
2022/06/21 07:20:48;;;;;;;;;;;;;;;-140.72;100.00;52370.56;6286351;22;19911;-71
2022/06/21 07:23:15;;;;;;;;;;;;;;;-140.72;100.00;52374.63;6287003;22;19915;-71
2022/06/21 07:25:49;;;;;;;;;;;;;;;-140.72;100.00;52382.75;6288608;22;19930;-71
2022/06/21 07:28:40;;;;;;;;;;;;;;;-140.72;100.00;52364.47;6260767;22;19911;-72
2022/06/21 07:31:19;;;;;;;;;;;;;;;-140.72;100.00;52362.44;6281861;22;19911;-72
2022/06/21 07:33:50;;;;;;;;;;;;;;;-140.72;100.00;52403.03;6285496;22;19942;-74
2022/06/21 07:36:26;;;;;;;;;;;;;;;-140.72;100.00;52362.44;6286516;22;19911;-72
2022/06/21 07:38:54;;;;;;;;;;;;;;;-140.72;100.00;52356.38;6288210;22;19911;-72
2022/06/21 07:41:28;;;;;;;;;;;;;;;-140.72;100.00;52352.31;6285632;22;19911;-72
2022/06/21 07:44:06;;;;;;;;;;;;;;;-140.72;100.00;52362.44;6285095;22;19919;-72
2022/06/21 07:46:39;;;;;;;;;;;;;;;-140.72;100.00;52382.75;6284182;22;19969;-72
2022/06/21 07:49:16;;;;;;;;;;;;;;;-140.72;100.00;52360.44;6285170;22;19947;-73
2022/06/21 07:51:45;;;;;;;;;;;;;;;-140.72;100.00;52354.34;6284927;22;19912;-73
2022/06/21 07:54:16;;;;;;;;;;;;;;;-140.72;100.00;52340.13;6285494;22;19912;-73
2022/06/21 07:56:49;;;;;;;;;;;;;;;-140.72;100.00;52323.91;6258324;22;19918;-72
2022/06/21 07:59:20;;;;;;;;;;;;;;;-140.72;100.00;52305.63;6257129;22;19912;-73
2022/06/21 08:07:20;;;;;;;;;;;;;;;-140.72;100.00;52254.91;6284910;22;19981;-72
2022/06/21 08:09:45;;;;;;;;;;;;;;;-140.72;100.00;52246.78;6285810;22;19974;-72
2022/06/21 08:12:12;;;;;;;;;;;;;;;-140.72;100.00;52238.69;6285062;22;19915;-72
2022/06/21 08:14:37;;;;;;;;;;;;;;;-140.72;100.00;52261.00;6258600;22;19912;-72
2022/06/21 08:17:21;;;;;;;;;;;;;;;-140.72;100.00;52267.09;6285729;22;20322;-72
2022/06/21 08:19:49;;;;;;;;;;;;;;;-140.72;100.00;52303.59;6284567;22;19911;-72
2022/06/21 08:22:19;;;;;;;;;;;;;;;-140.72;100.00;52250.84;6285935;22;19988;-72
2022/06/21 08:24:55;;;;;;;;;;;;;;;-140.72;100.00;52248.81;6285492;22;19911;-72
2022/06/21 08:27:29;;;;;;;;;;;;;;;-140.72;100.00;52281.28;6285382;22;19912;-72
2022/06/21 08:29:57;;;;;;;;;;;;;;;-140.72;100.00;52263.03;6258232;22;19991;-72
2022/06/21 08:32:27;;;;;;;;;;;;;;;-140.72;100.00;52281.28;6286018;22;20296;-73
2022/06/21 08:34:56;;;;;;;;;;;;;;;-140.72;100.00;52263.03;6259259;22;19989;-72
2022/06/21 08:37:43;;;;;;;;;;;;;;;-140.72;100.00;52295.50;6286942;22;20405;-74
2022/06/21 08:40:24;;;;;;;;;;;;;;;-140.72;100.00;52258.97;6257265;22;19961;-72
2022/06/21 08:43:04;;;;;;;;;;;;;;;-140.72;100.00;52240.72;6283058;22;19912;-72
2022/06/21 08:45:41;;;;;;;;;;;;;;;-140.72;100.00;52254.91;6284102;22;19955;-72
2022/06/21 08:48:07;;;;;;;;;;;;;;;-140.72;100.00;52240.72;6257687;22;19942;-72
2022/06/21 08:50:51;;;;;;;;;;;;;;;-140.72;100.00;52200.13;6284035;22;19911;-72
2022/06/21 08:53:25;;;;;;;;;;;;;;;-140.72;100.00;52224.47;6285201;22;19942;-73
2022/06/21 08:56:09;;;;;;;;;;;;;;;-140.72;100.00;52189.97;6256640;22;20281;-73
2022/06/21 08:58:41;;;;;;;;;;;;;;;-140.72;100.00;52171.72;6283886;22;20392;-72
2022/06/21 09:01:07;;;;;;;;;;;;;;;-140.72;100.00;52196.06;6283889;22;19965;-73
2022/06/21 09:03:55;;;;;;;;;;;;;;;-140.72;100.00;52194.03;6283472;22;19911;-72
2022/06/21 09:06:23;;;;;;;;;;;;;;;-140.72;100.00;52163.59;6227000;22;19915;-74
2022/06/21 09:08:48;;;;;;;;;;;;;;;-140.72;100.00;52145.34;6256635;22;20286;-75
2022/06/21 09:11:26;;;;;;;;;;;;;;;-140.72;100.00;52114.91;6283640;22;19915;-74
2022/06/21 09:13:51;;;;;;;;;;;;;;;-140.72;100.00;52110.84;6285216;22;19911;-75
2022/06/21 09:16:25;;;;;;;;;;;;;;;-140.72;100.00;52092.59;6256896;22;19915;-75
2022/06/21 09:19:19;;;;;;;;;;;;;;;-140.72;100.00;52045.94;6288911;22;19912;-75
2022/06/21 09:21:59;;;;;;;;;;;;;;;-140.72;100.00;52001.28;6255449;22;19916;-75
2022/06/21 09:24:24;;;;;;;;;;;;;;;-140.72;100.00;52052.00;6282147;22;20321;-74
2022/06/21 09:26:55;;;;;;;;;;;;;;;-140.72;100.00;52086.50;6254068;22;19961;-75
2022/06/21 09:29:27;;;;;;;;;;;;;;;-140.72;100.00;52080.41;6282046;22;19946;-74
2022/06/21 09:32:04;;;;;;;;;;;;;;;-140.72;100.00;52131.16;6253206;22;20009;-74
2022/06/21 09:34:48;;;;;;;;;;;;;;;-140.72;100.00;52112.88;6279372;22;19911;-73
2022/06/21 09:37:13;;;;;;;;;;;;;;;-140.72;100.00;52131.16;6252294;22;19915;-74
2022/06/21 09:39:50;;;;;;;;;;;;;;;-140.72;100.00;52125.06;6279401;22;19918;-73
2022/06/21 09:42:25;;;;;;;;;;;;;;;-140.72;100.00;52112.88;6281141;22;19911;-74
2022/06/21 09:45:02;;;;;;;;;;;;;;;-140.72;100.00;52031.72;6253005;22;19942;-74
2022/06/21 09:47:31;;;;;;;;;;;;;;;-140.72;100.00;52066.22;6279507;22;19911;-74
2022/06/21 09:49:59;;;;;;;;;;;;;;;-140.72;100.00;52110.84;6279951;22;19961;-74
2022/06/21 09:52:24;;;;;;;;;;;;;;;-140.72;100.00;52096.66;6282227;22;19912;-75
2022/06/21 09:55:16;;;;;;;;;;;;;;;-140.72;100.00;52102.75;6282447;22;19930;-74
2022/06/21 09:57:54;;;;;;;;;;;;;;;-140.72;100.00;52116.94;6234178;22;19915;-74
2022/06/21 10:00:29;;;;;;;;;;;;;;;-140.72;100.00;52090.56;6256146;22;19994;-74
2022/06/21 10:03:00;;;;;;;;;;;;;;;-140.72;100.00;52082.44;6282194;22;19928;-74
2022/06/21 10:05:33;;;;;;;;;;;;;;;-140.72;100.00;52035.78;6282618;22;20218;-74
2022/06/21 10:08:04;;;;;;;;;;;;;;;-140.72;100.00;51958.69;6256760;22;19915;-74
2022/06/21 10:10:55;;;;;;;;;;;;;;;-140.72;100.00;52001.28;6257504;22;19907;-74
2022/06/21 10:13:23;;;;;;;;;;;;;;;-140.72;100.00;51897.81;6287657;22;19930;-74
2022/06/21 10:15:57;;;;;;;;;;;;;;;-140.72;100.00;51924.19;6262911;22;19961;-74
2022/06/21 10:18:37;;;;;;;;;;;;;;;-140.72;100.00;51918.09;6291000;22;19935;-73
2022/06/21 10:21:15;;;;;;;;;;;;;;;-140.72;100.00;51968.81;6263148;22;19907;-74
2022/06/21 10:23:46;;;;;;;;;;;;;;;-140.72;100.00;51928.25;6285164;22;19915;-74
2022/06/21 10:26:27;;;;;;;;;;;;;;;-140.72;100.00;51820.72;6286575;22;19957;-74
2022/06/21 10:29:11;;;;;;;;;;;;;;;-140.72;100.00;51826.81;6286246;22;20328;-75
2022/06/21 10:31:51;;;;;;;;;;;;;;;-140.72;100.00;51838.97;6290012;22;20016;-74
2022/06/21 10:34:29;;;;;;;;;;;;;;;-140.72;100.00;51885.66;6262566;22;19911;-74
2022/06/21 10:36:59;;;;;;;;;;;;;;;-140.72;100.00;51830.88;6292696;22;19915;-79
2022/06/21 10:39:32;;;;;;;;;;;;;;;-140.72;100.00;51757.81;6260683;22;19933;-72
2022/06/21 10:45:09;;;;;;;;;;;;;;;-140.72;100.00;51790.28;6283497;22;19918;-73
2022/06/21 10:47:34;;;;;;;;;;;;;;;-140.72;100.00;51757.81;6284079;22;19912;-72
2022/06/21 10:50:20;;;;;;;;;;;;;;;-140.72;100.00;51806.53;6283849;22;19946;-72
2022/06/21 10:53:01;;;;;;;;;;;;;;;-140.72;100.00;51903.91;6282141;22;19950;-72
2022/06/21 10:55:29;;;;;;;;;;;;;;;-140.72;100.00;52001.28;6282363;22;19938;-73
2022/06/21 10:58:01;;;;;;;;;;;;;;;-140.72;100.00;52037.81;6255287;22;19912;-72
2022/06/21 11:03:30;;;;;;;;;;;;;;;-140.72;100.00;52049.97;6283032;22;19925;-71
2022/06/21 11:05:56;;;;;;;;;;;;;;;-140.72;100.00;52027.66;6282276;22;19927;-72
2022/06/21 11:08:39;;;;;;;;;;;;;;;-140.72;100.00;51976.94;6282833;22;19915;-72
2022/06/21 11:11:18;;;;;;;;;;;;;;;-140.72;100.00;52021.56;6282008;22;20251;-72
2022/06/21 11:13:56;;;;;;;;;;;;;;;-140.72;100.00;51985.06;6256412;22;19990;-72
2022/06/21 11:16:39;;;;;;;;;;;;;;;-140.72;100.00;52047.97;6283797;22;19934;-72
2022/06/21 11:19:19;;;;;;;;;;;;;;;-140.72;100.00;52017.53;6283447;22;19911;-72
2022/06/21 11:21:56;;;;;;;;;;;;;;;-140.72;100.00;51985.06;6284332;22;19915;-72
2022/06/21 11:24:29;;;;;;;;;;;;;;;-140.72;100.00;52007.38;6255913;22;19915;-73
2022/06/21 11:27:07;;;;;;;;;;;;;;;-140.72;100.00;51978.97;6282513;22;20359;-72
2022/06/21 11:29:51;;;;;;;;;;;;;;;-140.72;100.00;52013.47;6282363;22;19965;-72
2022/06/21 11:32:22;;;;;;;;;;;;;;;-140.72;100.00;52086.50;6282902;22;19951;-72
2022/06/21 11:34:53;;;;;;;;;;;;;;;-140.72;100.00;52078.38;6283604;22;19911;-72
2022/06/21 11:37:41;;;;;;;;;;;;;;;-140.72;100.00;52098.69;6283565;22;19911;-72
2022/06/21 11:40:25;;;;;;;;;;;;;;;-140.72;100.00;52082.44;6283914;22;19911;-72
2022/06/21 11:42:52;;;;;;;;;;;;;;;-140.72;100.00;52102.75;6282710;22;19911;-72
2022/06/21 11:45:20;;;;;;;;;;;;;;;-140.72;100.00;52086.50;6285159;22;20325;-72
2022/06/21 11:47:55;;;;;;;;;;;;;;;-140.72;100.00;52054.03;6287413;22;19973;-72
2022/06/21 11:50:23;;;;;;;;;;;;;;;-140.72;100.00;52096.66;6284931;22;20009;-71
2022/06/21 11:53:15;;;;;;;;;;;;;;;-140.72;100.00;52094.63;6283645;22;19950;-71
2022/06/21 11:55:46;;;;;;;;;;;;;;;-140.72;100.00;52037.81;6284477;22;19994;-72
2022/06/21 11:58:25;;;;;;;;;;;;;;;-140.72;100.00;52039.84;6284044;22;20428;-71
2022/06/21 12:00:52;;;;;;;;;;;;;;;-140.72;100.00;52066.22;6285412;22;19911;-72
2022/06/21 12:03:37;;;;;;;;;;;;;;;-140.72;100.00;52021.56;6282318;22;19911;-71
2022/06/21 12:06:17;;;;;;;;;;;;;;;-140.72;100.00;52064.19;6281206;22;19926;-71
2022/06/21 12:08:54;;;;;;;;;;;;;;;-140.72;100.00;52054.03;6281489;22;20367;-71
2022/06/21 12:11:25;;;;;;;;;;;;;;;-140.72;100.00;52049.97;6281035;22;19911;-71
2022/06/21 12:13:50;;;;;;;;;;;;;;;-140.72;100.00;52054.03;6280665;22;19958;-71
2022/06/21 12:16:27;;;;;;;;;;;;;;;-140.72;100.00;52064.19;6254517;22;19911;-72
2022/06/21 12:18:57;;;;;;;;;;;;;;;-140.72;100.00;52058.09;6281307;22;19911;-72
2022/06/21 12:21:26;;;;;;;;;;;;;;;-140.72;100.00;52064.19;6283631;22;19912;-71
2022/06/21 12:23:56;;;;;;;;;;;;;;;-140.72;100.00;52021.56;6283685;22;19972;-72
2022/06/21 12:26:22;;;;;;;;;;;;;;;-140.72;100.00;52025.63;6281564;22;19912;-71
2022/06/21 12:28:48;;;;;;;;;;;;;;;-140.72;100.00;51999.25;6254355;22;19912;-71
2022/06/21 12:31:20;;;;;;;;;;;;;;;-140.72;100.00;51981.00;6282014;22;19916;-71
2022/06/21 12:33:47;;;;;;;;;;;;;;;-140.72;100.00;51944.47;6282750;22;19965;-71
2022/06/21 12:36:21;;;;;;;;;;;;;;;-140.72;100.00;51991.16;6284139;22;19911;-72
2022/06/21 12:38:55;;;;;;;;;;;;;;;-140.72;100.00;51981.00;6289569;22;20044;-71
2022/06/21 12:41:50;;;;;;;;;;;;;;;-140.72;100.00;51993.19;6282902;22;19912;-71
2022/06/21 12:44:18;;;;;;;;;;;;;;;-140.72;100.00;52021.56;6228518;22;20275;-73
2022/06/21 12:46:58;;;;;;;;;;;;;;;-140.72;100.00;52031.72;6286634;22;19968;-72
2022/06/21 12:49:23;;;;;;;;;;;;;;;-140.72;100.00;52062.16;6284242;22;19935;-72
2022/06/21 12:51:53;;;;;;;;;;;;;;;-140.72;100.00;52068.25;6283338;22;19911;-72
2022/06/21 12:54:37;;;;;;;;;;;;;;;-140.72;100.00;52070.28;6283406;22;20256;-71
2022/06/21 12:57:21;;;;;;;;;;;;;;;-140.72;100.00;52066.22;6285797;22;19915;-72
2022/06/21 13:00:05;;;;;;;;;;;;;;;-140.72;100.00;52052.00;6285251;22;19933;-71
2022/06/21 13:02:49;;;;;;;;;;;;;;;-140.72;100.00;52039.84;6281974;22;19911;-72
2022/06/21 13:05:33;;;;;;;;;;;;;;;-140.72;100.00;51993.19;6282352;22;20015;-72
2022/06/21 13:08:17;;;;;;;;;;;;;;;-140.72;100.00;51960.72;6282228;22;19915;-72
2022/06/21 13:10:59;;;;;;;;;;;;;;;-140.72;100.00;51895.78;6281245;22;19942;-72
2022/06/21 13:13:27;;;;;;;;;;;;;;;-140.72;100.00;51891.72;6280959;22;19961;-72
2022/06/21 13:16:08;;;;;;;;;;;;;;;-140.72;100.00;51932.31;6254366;22;19945;-73
2022/06/21 13:18:35;;;;;;;;;;;;;;;-140.72;100.00;51914.03;6283894;22;19919;-72
2022/06/21 13:21:22;;;;;;;;;;;;;;;-140.72;100.00;51942.44;6258370;22;19912;-72
2022/06/21 13:24:06;;;;;;;;;;;;;;;-140.72;100.00;51940.41;6259393;22;19912;-72
2022/06/21 13:26:53;;;;;;;;;;;;;;;-140.72;100.00;51940.41;6286333;22;19945;-72
2022/06/21 13:29:21;;;;;;;;;;;;;;;-140.72;100.00;51946.50;6259569;22;19950;-72